Time;durP1;ratioP1;P1;durP2;ratioP2;P2;SDS_P1;SDS_P2;PMS_P1;PMS_P2;Temp;Humidity;BMP_temperature;BMP_pressure;BME280_temperature;BME280_humidity;BME280_pressure;Samples;Min_cycle;Max_cycle;Signal;HPM_P1;HPM_P2
2022/05/03 00:00:12;;;;;;;;;;;14.60;91.90;;;;;;4332534;33;44594;-79
2022/05/03 00:02:49;;;;;;;;;;;14.60;92.00;;;;;;4332195;33;42674;-79
2022/05/03 00:05:36;;;;;;;;;;;14.50;91.90;;;;;;4318333;33;44686;-79
2022/05/03 00:08:04;;;;;;;;;;;14.60;92.10;;;;;;4319318;33;43400;-78
2022/05/03 00:10:45;;;;;;;;;;;14.50;92.10;;;;;;4318698;33;44389;-78
2022/05/03 00:13:14;;;;;;;;;;;14.60;92.10;;;;;;4332429;33;46210;-79
2022/05/03 00:15:48;;;;;;;;;;;14.50;92.20;;;;;;4318723;33;43498;-79
2022/05/03 00:18:24;;;;;;;;;;;14.50;92.20;;;;;;4319026;33;44247;-79
2022/05/03 00:20:54;;;;;;;;;;;14.50;92.30;;;;;;4319129;33;45652;-78
2022/05/03 00:23:25;;;;;;;;;;;14.50;92.30;;;;;;4332174;33;45202;-78
2022/05/03 00:25:55;;;;;;;;;;;14.50;92.40;;;;;;4318466;33;45065;-78
2022/05/03 00:28:22;;;;;;;;;;;14.50;92.40;;;;;;4318428;33;43455;-79
2022/05/03 00:30:55;;;;;;;;;;;14.50;92.50;;;;;;4319202;33;44078;-79
2022/05/03 00:33:29;;;;;;;;;;;14.50;92.50;;;;;;4319133;33;44944;-79
2022/05/03 00:35:59;;;;;;;;;;;14.50;92.60;;;;;;4318740;33;46102;-79
2022/05/03 00:38:38;;;;;;;;;;;14.50;92.40;;;;;;4318426;33;43929;-79
2022/05/03 00:41:17;;;;;;;;;;;14.40;92.40;;;;;;4332027;33;45051;-79
2022/05/03 00:43:55;;;;;;;;;;;14.40;92.40;;;;;;4332024;33;44973;-79
2022/05/03 00:46:33;;;;;;;;;;;14.40;92.40;;;;;;4320060;33;19993;-79
2022/05/03 00:49:09;;;;;;;;;;;14.40;92.60;;;;;;4318267;33;44731;-79
2022/05/03 00:51:58;;;;;;;;;;;14.40;92.60;;;;;;4318654;33;44386;-79
2022/05/03 00:54:34;;;;;;;;;;;14.40;92.60;;;;;;4318697;33;44748;-79
2022/05/03 00:57:08;;;;;;;;;;;14.40;92.80;;;;;;4318545;33;44285;-79
2022/05/03 00:59:47;;;;;;;;;;;14.40;92.70;;;;;;4318214;33;43539;-79
2022/05/03 01:02:30;;;;;;;;;;;14.40;92.70;;;;;;4318255;33;42747;-79
2022/05/03 01:05:01;;;;;;;;;;;14.40;92.70;;;;;;4331830;33;44235;-79
2022/05/03 01:07:48;;;;;;;;;;;14.40;92.80;;;;;;4317848;33;44154;-79
2022/05/03 01:10:28;;;;;;;;;;;14.40;92.90;;;;;;4331708;33;45222;-79
2022/05/03 01:13:15;;;;;;;;;;;14.30;92.70;;;;;;4331073;33;43005;-79
2022/05/03 01:15:47;;;;;;;;;;;14.30;92.80;;;;;;4331399;33;45643;-79
2022/05/03 01:18:32;;;;;;;;;;;14.40;92.80;;;;;;4318003;33;43491;-79
2022/05/03 01:21:37;;;;;;;;;;;14.30;92.80;;;;;;4331707;33;43279;-79
2022/05/03 01:24:07;;;;;;;;;;;14.30;92.70;;;;;;4282464;33;44027;-80
2022/05/03 01:26:53;;;;;;;;;;;14.30;92.70;;;;;;4330992;33;42903;-79
2022/05/03 01:29:33;;;;;;;;;;;14.30;92.60;;;;;;4318326;33;44420;-79
2022/05/03 01:32:12;;;;;;;;;;;14.30;92.70;;;;;;4331131;33;42768;-80
2022/05/03 01:34:45;;;;;;;;;;;14.30;92.70;;;;;;4318262;33;43255;-80
2022/05/03 01:37:36;;;;;;;;;;;14.30;92.70;;;;;;4331153;33;44326;-80
2022/05/03 01:40:14;;;;;;;;;;;14.20;92.80;;;;;;4318126;33;43478;-80
2022/05/03 01:42:59;;;;;;;;;;;14.20;92.80;;;;;;4317909;33;45587;-79
2022/05/03 01:45:34;;;;;;;;;;;14.20;92.70;;;;;;4317843;33;45250;-79
2022/05/03 01:48:07;;;;;;;;;;;14.20;92.70;;;;;;4318666;33;20544;-80
2022/05/03 01:50:58;;;;;;;;;;;14.20;92.80;;;;;;4331130;33;43168;-79
2022/05/03 01:53:45;;;;;;;;;;;14.20;92.80;;;;;;4318016;33;44216;-80
2022/05/03 01:56:32;;;;;;;;;;;14.20;92.80;;;;;;4318273;33;43595;-80
2022/05/03 01:59:07;;;;;;;;;;;14.10;92.60;;;;;;4330520;33;44162;-80
2022/05/03 02:01:58;;;;;;;;;;;14.10;92.50;;;;;;4317470;33;42774;-79
2022/05/03 02:04:28;;;;;;;;;;;14.10;92.60;;;;;;4330707;33;42777;-79
2022/05/03 02:07:27;;;;;;;;;;;14.10;92.60;;;;;;4318052;33;43916;-79
2022/05/03 02:10:12;;;;;;;;;;;14.00;92.60;;;;;;4317718;33;43120;-80
2022/05/03 02:12:48;;;;;;;;;;;14.10;92.60;;;;;;4317605;33;45716;-80
2022/05/03 02:15:27;;;;;;;;;;;14.00;92.60;;;;;;4317644;33;44572;-80
2022/05/03 02:18:05;;;;;;;;;;;14.00;92.50;;;;;;4317353;33;44929;-80
2022/05/03 02:20:35;;;;;;;;;;;14.00;92.60;;;;;;4330609;33;44796;-80
2022/05/03 02:23:15;;;;;;;;;;;14.00;92.50;;;;;;4317915;33;45844;-80
2022/05/03 02:26:09;;;;;;;;;;;14.00;92.60;;;;;;4317301;33;44590;-80
2022/05/03 02:28:45;;;;;;;;;;;14.00;92.50;;;;;;4313423;33;43843;-81
2022/05/03 02:31:13;;;;;;;;;;;14.00;92.60;;;;;;4317456;33;44860;-81
2022/05/03 02:33:58;;;;;;;;;;;13.90;92.40;;;;;;4317318;33;43559;-80
2022/05/03 02:36:33;;;;;;;;;;;13.90;92.60;;;;;;4317461;33;43268;-80
2022/05/03 02:39:08;;;;;;;;;;;13.90;92.40;;;;;;4317378;33;43802;-80
2022/05/03 02:41:46;;;;;;;;;;;13.90;92.50;;;;;;4317351;33;42666;-81
2022/05/03 02:44:15;;;;;;;;;;;13.80;92.40;;;;;;4317640;33;44337;-80
2022/05/03 02:47:03;;;;;;;;;;;13.80;92.60;;;;;;4317221;33;45291;-80
2022/05/03 02:49:37;;;;;;;;;;;13.80;92.70;;;;;;4317919;33;19997;-79
2022/05/03 02:52:23;;;;;;;;;;;13.80;92.60;;;;;;4330438;33;45056;-80
2022/05/03 02:55:16;;;;;;;;;;;13.80;92.60;;;;;;4317486;33;45529;-80
2022/05/03 02:57:58;;;;;;;;;;;13.70;92.30;;;;;;4317134;33;44220;-80
2022/05/03 03:03:36;;;;;;;;;;;13.70;92.30;;;;;;4333212;33;44443;-80
2022/05/03 03:06:06;;;;;;;;;;;13.70;92.40;;;;;;4319999;33;45493;-80
2022/05/03 03:08:46;;;;;;;;;;;13.60;92.40;;;;;;4319995;33;46240;-79
2022/05/03 03:11:24;;;;;;;;;;;13.70;92.50;;;;;;4333476;33;44227;-80
2022/05/03 03:14:00;;;;;;;;;;;13.70;92.30;;;;;;4320084;33;44494;-80
2022/05/03 03:16:31;;;;;;;;;;;13.60;92.10;;;;;;4333380;33;43381;-80
2022/05/03 03:19:10;;;;;;;;;;;13.60;92.30;;;;;;4319601;33;44087;-80
2022/05/03 03:21:44;;;;;;;;;;;13.60;92.30;;;;;;4319918;33;43109;-80
2022/05/03 03:24:20;;;;;;;;;;;13.60;92.40;;;;;;4319871;33;43285;-80
2022/05/03 03:26:52;;;;;;;;;;;13.50;92.30;;;;;;4333205;33;43367;-80
2022/05/03 03:29:22;;;;;;;;;;;13.50;92.20;;;;;;4319914;33;44723;-81
2022/05/03 03:31:49;;;;;;;;;;;13.50;92.20;;;;;;4319723;33;45088;-80
2022/05/03 03:34:22;;;;;;;;;;;13.50;92.20;;;;;;4332682;33;42905;-80
2022/05/03 03:37:01;;;;;;;;;;;13.40;92.20;;;;;;4332817;33;44620;-80
2022/05/03 03:39:30;;;;;;;;;;;13.40;92.20;;;;;;4319821;33;44309;-80
2022/05/03 03:42:06;;;;;;;;;;;13.40;92.30;;;;;;4319615;33;44269;-80
2022/05/03 03:44:36;;;;;;;;;;;13.40;92.20;;;;;;4332895;33;44630;-80
2022/05/03 03:47:06;;;;;;;;;;;13.40;92.30;;;;;;4332244;33;44110;-80
2022/05/03 03:49:40;;;;;;;;;;;13.40;92.30;;;;;;4319510;33;44964;-80
2022/05/03 03:52:11;;;;;;;;;;;13.30;92.20;;;;;;4318942;33;46312;-81
2022/05/03 03:54:41;;;;;;;;;;;13.30;92.20;;;;;;4332636;33;45199;-81
2022/05/03 03:57:11;;;;;;;;;;;13.30;92.20;;;;;;4319381;33;45565;-80
2022/05/03 03:59:41;;;;;;;;;;;13.30;92.30;;;;;;4318940;33;43896;-80
2022/05/03 04:02:17;;;;;;;;;;;13.20;92.30;;;;;;4318864;33;44271;-80
2022/05/03 04:04:48;;;;;;;;;;;13.20;92.30;;;;;;4319345;33;45179;-79
2022/05/03 04:07:20;;;;;;;;;;;13.20;92.30;;;;;;4319204;33;43366;-80
2022/05/03 04:09:54;;;;;;;;;;;13.20;92.30;;;;;;4319418;33;45296;-80
2022/05/03 04:12:23;;;;;;;;;;;13.20;92.30;;;;;;4332321;33;44075;-80
2022/05/03 04:14:53;;;;;;;;;;;13.20;92.00;;;;;;4332462;33;44901;-80
2022/05/03 04:17:28;;;;;;;;;;;13.20;92.30;;;;;;4319524;33;42983;-81
2022/05/03 04:19:59;;;;;;;;;;;13.20;92.30;;;;;;4319083;33;44079;-82
2022/05/03 04:22:30;;;;;;;;;;;13.10;92.10;;;;;;4331883;33;42771;-80
2022/05/03 04:25:00;;;;;;;;;;;13.10;92.20;;;;;;4319018;33;44839;-80
2022/05/03 04:27:35;;;;;;;;;;;13.10;92.20;;;;;;4319465;33;43282;-80
2022/05/03 04:30:08;;;;;;;;;;;13.10;92.40;;;;;;4318926;33;43524;-80
2022/05/03 04:32:41;;;;;;;;;;;13.00;92.20;;;;;;4319327;33;44222;-80
2022/05/03 04:35:14;;;;;;;;;;;13.00;92.30;;;;;;4318961;33;44631;-80
2022/05/03 04:37:41;;;;;;;;;;;13.00;92.20;;;;;;4331879;33;45366;-80
2022/05/03 04:40:09;;;;;;;;;;;13.00;92.20;;;;;;4318967;33;44222;-80
2022/05/03 04:42:46;;;;;;;;;;;13.00;92.20;;;;;;4319435;33;43069;-80
2022/05/03 04:45:16;;;;;;;;;;;12.90;92.10;;;;;;4331789;33;43252;-80
2022/05/03 04:47:46;;;;;;;;;;;12.90;92.10;;;;;;4318435;33;44184;-79
2022/05/03 04:50:21;;;;;;;;;;;12.90;92.20;;;;;;4318080;33;45766;-80
2022/05/03 04:52:59;;;;;;;;;;;12.90;92.20;;;;;;4319646;33;20005;-79
2022/05/03 04:55:29;;;;;;;;;;;12.90;92.20;;;;;;4331761;33;44163;-79
2022/05/03 04:57:58;;;;;;;;;;;12.90;92.10;;;;;;4331303;33;42983;-79
2022/05/03 05:00:33;;;;;;;;;;;12.80;92.20;;;;;;4318884;33;43007;-79
2022/05/03 05:03:06;;;;;;;;;;;12.80;92.30;;;;;;4315436;33;41876;-79
2022/05/03 05:05:38;;;;;;;;;;;12.80;92.20;;;;;;4315960;33;43725;-80
2022/05/03 05:08:08;;;;;;;;;;;12.80;92.30;;;;;;4315972;33;43340;-79
2022/05/03 05:10:35;;;;;;;;;;;12.80;92.30;;;;;;4315620;33;42747;-80
2022/05/03 05:13:05;;;;;;;;;;;12.80;92.20;;;;;;4315460;33;44243;-79
2022/05/03 05:15:41;;;;;;;;;;;12.80;92.20;;;;;;4315806;33;43732;-79
2022/05/03 05:18:16;;;;;;;;;;;12.80;92.30;;;;;;4315730;33;44541;-79
2022/05/03 05:20:46;;;;;;;;;;;12.80;92.20;;;;;;4315726;33;45144;-79
2022/05/03 05:23:22;;;;;;;;;;;12.80;92.20;;;;;;4315818;33;20415;-80
2022/05/03 05:25:54;;;;;;;;;;;12.80;92.10;;;;;;4316809;33;44102;-79
2022/05/03 05:28:33;;;;;;;;;;;12.70;92.10;;;;;;4315707;33;44679;-79
2022/05/03 05:31:00;;;;;;;;;;;12.70;92.30;;;;;;4315183;33;42391;-79
2022/05/03 05:33:33;;;;;;;;;;;12.70;92.30;;;;;;4315087;33;44496;-79
2022/05/03 05:36:03;;;;;;;;;;;12.70;92.40;;;;;;4315598;33;44638;-80
2022/05/03 05:38:33;;;;;;;;;;;12.70;92.50;;;;;;4315061;33;46069;-79
2022/05/03 05:41:13;;;;;;;;;;;12.70;92.50;;;;;;4315050;33;42883;-79
2022/05/03 05:43:43;;;;;;;;;;;12.70;92.40;;;;;;4315212;33;44161;-80
2022/05/03 05:46:14;;;;;;;;;;;12.70;92.60;;;;;;4316151;33;43898;-79
2022/05/03 05:48:49;;;;;;;;;;;12.70;92.60;;;;;;4316441;33;44113;-80
2022/05/03 05:51:16;;;;;;;;;;;12.70;92.70;;;;;;4315557;33;43376;-79
2022/05/03 05:53:47;;;;;;;;;;;12.70;92.60;;;;;;4315732;33;20057;-79
2022/05/03 05:56:20;;;;;;;;;;;12.60;92.50;;;;;;4315210;33;42808;-79
2022/05/03 05:58:55;;;;;;;;;;;12.60;92.50;;;;;;4315552;33;42865;-80
2022/05/03 06:01:26;;;;;;;;;;;12.60;92.60;;;;;;4316646;33;43207;-81
2022/05/03 06:03:59;;;;;;;;;;;12.60;92.60;;;;;;4315040;33;45356;-79
2022/05/03 06:06:29;;;;;;;;;;;12.60;92.60;;;;;;4315211;33;44040;-79
2022/05/03 06:09:02;;;;;;;;;;;12.60;92.70;;;;;;4314900;33;43471;-79
2022/05/03 06:11:32;;;;;;;;;;;12.60;92.70;;;;;;4315286;33;44037;-79
2022/05/03 06:13:59;;;;;;;;;;;12.60;92.70;;;;;;4315186;33;43761;-80
2022/05/03 06:16:29;;;;;;;;;;;12.60;92.60;;;;;;4314882;33;42904;-79
2022/05/03 06:18:56;;;;;;;;;;;12.60;92.70;;;;;;4314435;33;42788;-81
2022/05/03 06:21:26;;;;;;;;;;;12.60;92.70;;;;;;4314540;33;44251;-80
2022/05/03 06:23:53;;;;;;;;;;;12.60;92.80;;;;;;4315564;33;20370;-81
2022/05/03 06:26:21;;;;;;;;;;;12.60;92.90;;;;;;4315009;33;44924;-80
2022/05/03 06:28:56;;;;;;;;;;;12.60;92.90;;;;;;4315947;33;43582;-80
2022/05/03 06:31:24;;;;;;;;;;;12.60;92.90;;;;;;4314893;33;44105;-80
2022/05/03 06:33:51;;;;;;;;;;;12.60;93.00;;;;;;4314378;33;43682;-80
2022/05/03 06:36:26;;;;;;;;;;;12.60;92.90;;;;;;4315616;33;42906;-81
2022/05/03 06:38:54;;;;;;;;;;;12.60;92.70;;;;;;4314601;33;43092;-81
2022/05/03 06:41:29;;;;;;;;;;;12.60;92.60;;;;;;4314819;33;43556;-81
2022/05/03 06:44:00;;;;;;;;;;;12.50;92.60;;;;;;4314879;33;43204;-81
2022/05/03 06:46:33;;;;;;;;;;;12.50;93.00;;;;;;4314812;33;43123;-80
2022/05/03 06:49:00;;;;;;;;;;;12.50;93.20;;;;;;4315595;33;43983;-81
2022/05/03 06:51:30;;;;;;;;;;;12.50;93.10;;;;;;4314679;33;44217;-80
2022/05/03 06:54:03;;;;;;;;;;;12.50;93.00;;;;;;4316265;33;20048;-80
2022/05/03 06:56:35;;;;;;;;;;;12.50;93.10;;;;;;4315773;33;44075;-80
2022/05/03 06:59:03;;;;;;;;;;;12.60;93.20;;;;;;4315888;33;43465;-80
2022/05/03 07:01:36;;;;;;;;;;;12.60;93.40;;;;;;4314422;33;44658;-80
2022/05/03 07:04:08;;;;;;;;;;;12.60;93.50;;;;;;4314524;33;43115;-80
2022/05/03 07:06:43;;;;;;;;;;;12.60;93.30;;;;;;4314241;33;42768;-80
2022/05/03 07:09:16;;;;;;;;;;;12.60;93.30;;;;;;4314737;33;44159;-80
2022/05/03 07:11:45;;;;;;;;;;;12.60;93.30;;;;;;4314317;33;43986;-80
2022/05/03 07:14:15;;;;;;;;;;;12.60;93.20;;;;;;4314335;33;44223;-80
2022/05/03 07:16:48;;;;;;;;;;;12.60;93.30;;;;;;4314541;33;43174;-80
2022/05/03 07:24:49;;;;;;;;;;;12.60;93.20;;;;;;4315998;33;20036;-79
2022/05/03 07:27:22;;;;;;;;;;;12.70;93.40;;;;;;4315172;33;44184;-79
2022/05/03 07:29:52;;;;;;;;;;;12.70;93.20;;;;;;4315653;33;45889;-79
2022/05/03 07:32:25;;;;;;;;;;;12.70;93.20;;;;;;4314472;33;46187;-79
2022/05/03 07:34:53;;;;;;;;;;;12.70;93.20;;;;;;4315709;33;45272;-79
2022/05/03 07:37:20;;;;;;;;;;;12.70;93.30;;;;;;4314395;33;43560;-79
2022/05/03 07:39:47;;;;;;;;;;;12.70;93.50;;;;;;4314472;33;43280;-80
2022/05/03 07:42:18;;;;;;;;;;;12.80;93.50;;;;;;4314029;33;44002;-80
2022/05/03 07:44:48;;;;;;;;;;;12.80;93.40;;;;;;4314125;33;43700;-80
2022/05/03 07:47:15;;;;;;;;;;;12.80;93.50;;;;;;4314976;33;43517;-79
2022/05/03 07:49:45;;;;;;;;;;;12.80;93.40;;;;;;4316395;33;45637;-80
2022/05/03 07:52:18;;;;;;;;;;;12.80;93.30;;;;;;4317048;33;43491;-80
2022/05/03 07:54:55;;;;;;;;;;;12.90;93.40;;;;;;4317080;33;27597;-80
2022/05/03 07:57:25;;;;;;;;;;;12.90;93.40;;;;;;4316883;33;44601;-81
2022/05/03 08:00:00;;;;;;;;;;;12.90;93.50;;;;;;4316330;33;43930;-80
2022/05/03 08:02:30;;;;;;;;;;;12.90;93.40;;;;;;4318756;33;44206;-81
2022/05/03 08:05:03;;;;;;;;;;;13.00;93.30;;;;;;4318993;33;42971;-81
2022/05/03 08:07:31;;;;;;;;;;;13.00;93.40;;;;;;4332608;33;43877;-82
2022/05/03 08:10:01;;;;;;;;;;;13.00;93.40;;;;;;4319364;33;45340;-81
2022/05/03 08:12:34;;;;;;;;;;;13.00;93.30;;;;;;4318804;33;42749;-80
2022/05/03 08:15:05;;;;;;;;;;;13.00;93.30;;;;;;4319064;33;43447;-81
2022/05/03 08:17:35;;;;;;;;;;;13.00;93.20;;;;;;4319311;33;45389;-82
2022/05/03 08:20:05;;;;;;;;;;;13.10;93.10;;;;;;4319111;33;43457;-82
2022/05/03 08:22:34;;;;;;;;;;;13.10;93.00;;;;;;4319034;33;43980;-82
2022/05/03 08:25:06;;;;;;;;;;;13.10;93.00;;;;;;4319005;33;42675;-83
2022/05/03 08:27:38;;;;;;;;;;;13.10;92.90;;;;;;4319106;33;42963;-82
2022/05/03 08:30:08;;;;;;;;;;;13.20;92.80;;;;;;4318462;33;44156;-82
2022/05/03 08:32:35;;;;;;;;;;;13.10;92.60;;;;;;4318420;33;45434;-84
2022/05/03 08:35:03;;;;;;;;;;;13.10;91.90;;;;;;4318950;33;44833;-83
2022/05/03 08:43:05;;;;;;;;;;;13.20;92.00;;;;;;4332010;33;45817;-85
2022/05/03 08:45:37;;;;;;;;;;;13.20;91.60;;;;;;4319054;33;44074;-85
2022/05/03 08:48:06;;;;;;;;;;;13.20;92.10;;;;;;4318340;33;42724;-85
2022/05/03 08:50:37;;;;;;;;;;;13.20;92.20;;;;;;4318447;33;42645;-84
2022/05/03 08:53:05;;;;;;;;;;;13.30;92.20;;;;;;4332139;33;43220;-84
2022/05/03 08:55:35;;;;;;;;;;;13.30;92.30;;;;;;4318630;33;45713;-84
2022/05/03 08:58:05;;;;;;;;;;;13.30;91.80;;;;;;4317545;33;42559;-84
2022/05/03 09:00:45;;;;;;;;;;;13.30;91.80;;;;;;4318727;33;45174;-85
2022/05/03 09:03:14;;;;;;;;;;;13.30;92.00;;;;;;4317972;33;43205;-85
2022/05/03 09:05:52;;;;;;;;;;;13.30;91.90;;;;;;4318594;33;43750;-84
2022/05/03 09:08:23;;;;;;;;;;;13.30;91.30;;;;;;4318410;33;45695;-84
2022/05/03 09:10:53;;;;;;;;;;;13.30;91.40;;;;;;4318029;33;42624;-84
2022/05/03 09:13:42;;;;;;;;;;;13.30;91.30;;;;;;4331148;33;43468;-84
2022/05/03 09:16:18;;;;;;;;;;;13.30;90.90;;;;;;4318160;33;44840;-83
2022/05/03 09:18:46;;;;;;;;;;;13.40;91.10;;;;;;4331461;33;42857;-84
2022/05/03 09:24:10;;;;;;;;;;;13.30;91.30;;;;;;4331453;33;45255;-84
2022/05/03 09:26:37;;;;;;;;;;;13.40;91.00;;;;;;4330862;33;44272;-84
2022/05/03 09:29:07;;;;;;;;;;;13.40;90.40;;;;;;4318618;33;20040;-84
2022/05/03 09:31:35;;;;;;;;;;;13.40;90.90;;;;;;4331274;33;42860;-84
2022/05/03 09:34:04;;;;;;;;;;;13.40;91.00;;;;;;4330936;33;44263;-84
2022/05/03 09:36:42;;;;;;;;;;;13.40;91.00;;;;;;4317789;33;43020;-84
2022/05/03 09:39:30;;;;;;;;;;;13.40;91.20;;;;;;4331110;33;45783;-84
2022/05/03 09:42:09;;;;;;;;;;;13.50;90.50;;;;;;4331132;33;42925;-85
2022/05/03 09:44:49;;;;;;;;;;;13.50;90.50;;;;;;4317693;33;44840;-85
2022/05/03 09:47:17;;;;;;;;;;;13.50;90.60;;;;;;4317940;33;44777;-84
2022/05/03 09:49:44;;;;;;;;;;;13.50;90.70;;;;;;4317539;33;44133;-84
2022/05/03 09:52:28;;;;;;;;;;;13.50;91.00;;;;;;4330955;33;44606;-79
2022/05/03 09:55:00;;;;;;;;;;;13.50;91.10;;;;;;4331193;33;44302;-79
2022/05/03 09:57:34;;;;;;;;;;;13.50;90.80;;;;;;4330831;33;43516;-75
2022/05/03 10:00:05;;;;;;;;;;;13.50;90.70;;;;;;4331283;33;20169;-80
2022/05/03 10:02:32;;;;;;;;;;;13.50;90.70;;;;;;4317517;33;44592;-81
2022/05/03 10:05:11;;;;;;;;;;;13.60;90.70;;;;;;4318083;33;44153;-81
2022/05/03 10:07:44;;;;;;;;;;;13.60;90.90;;;;;;4317584;33;46012;-81
2022/05/03 10:10:16;;;;;;;;;;;13.60;91.00;;;;;;4317519;33;45526;-83
2022/05/03 10:12:43;;;;;;;;;;;13.60;90.90;;;;;;4330880;33;44972;-81
2022/05/03 10:15:11;;;;;;;;;;;13.60;90.60;;;;;;4317762;33;43252;-82
2022/05/03 10:20:42;;;;;;;;;;;13.60;90.90;;;;;;4330605;33;44803;-81
2022/05/03 10:23:30;;;;;;;;;;;13.60;90.90;;;;;;4317794;33;46121;-81
2022/05/03 10:26:09;;;;;;;;;;;13.70;90.90;;;;;;4330660;33;44822;-81
2022/05/03 10:29:07;;;;;;;;;;;13.70;91.10;;;;;;4330641;33;44203;-81
2022/05/03 10:31:56;;;;;;;;;;;13.70;91.00;;;;;;4331401;33;20063;-81
2022/05/03 10:34:42;;;;;;;;;;;13.70;90.80;;;;;;4317212;33;43914;-89
2022/05/03 10:37:16;;;;;;;;;;;13.70;91.00;;;;;;4317888;33;43095;-88
2022/05/03 10:39:54;;;;;;;;;;;13.70;90.90;;;;;;4330505;33;43783;-88
2022/05/03 10:42:23;;;;;;;;;;;13.80;90.80;;;;;;4331737;33;44816;-88
2022/05/03 10:44:53;;;;;;;;;;;13.80;91.00;;;;;;4317110;33;44101;-87
2022/05/03 10:47:38;;;;;;;;;;;13.80;91.00;;;;;;4317235;33;43446;-87
2022/05/03 10:50:11;;;;;;;;;;;13.80;91.00;;;;;;4330877;33;44274;-86
2022/05/03 10:52:53;;;;;;;;;;;13.80;90.90;;;;;;4317407;33;44910;-86
2022/05/03 10:55:21;;;;;;;;;;;13.80;91.00;;;;;;4317007;33;42554;-87
2022/05/03 10:58:07;;;;;;;;;;;13.80;90.80;;;;;;4317044;33;43312;-86
2022/05/03 11:00:53;;;;;;;;;;;13.90;90.90;;;;;;4330015;33;43028;-87
2022/05/03 11:03:22;;;;;;;;;;;13.90;91.00;;;;;;4330719;33;19998;-87
2022/05/03 11:06:08;;;;;;;;;;;13.90;91.10;;;;;;4330113;33;43462;-87
2022/05/03 11:08:37;;;;;;;;;;;13.90;91.00;;;;;;4330453;33;42610;-87
2022/05/03 11:11:07;;;;;;;;;;;13.90;90.90;;;;;;4317477;33;42627;-88
2022/05/03 11:13:41;;;;;;;;;;;13.90;91.00;;;;;;4330540;33;45761;-87
2022/05/03 11:16:24;;;;;;;;;;;13.90;91.00;;;;;;4330938;33;43040;-88
2022/05/03 11:18:52;;;;;;;;;;;14.00;91.10;;;;;;4330295;33;43319;-88
2022/05/03 11:21:20;;;;;;;;;;;14.00;91.00;;;;;;4330076;33;43618;-87
2022/05/03 11:23:54;;;;;;;;;;;14.00;91.10;;;;;;4333437;33;44134;-88
2022/05/03 11:26:22;;;;;;;;;;;14.00;91.20;;;;;;4320298;33;43559;-87
2022/05/03 11:28:52;;;;;;;;;;;14.00;91.30;;;;;;4333105;33;42718;-89
2022/05/03 11:31:22;;;;;;;;;;;14.10;91.30;;;;;;4320448;33;44692;-89
2022/05/03 11:33:51;;;;;;;;;;;14.10;91.20;;;;;;4334058;33;20374;-88
2022/05/03 11:36:19;;;;;;;;;;;14.10;91.30;;;;;;4332669;33;45394;-88
2022/05/03 11:38:47;;;;;;;;;;;14.10;91.30;;;;;;4333012;33;42815;-88
2022/05/03 11:41:20;;;;;;;;;;;14.10;91.20;;;;;;4320570;33;44010;-88
2022/05/03 11:43:50;;;;;;;;;;;14.20;91.30;;;;;;4319603;33;45215;-89
2022/05/03 11:46:20;;;;;;;;;;;14.20;91.40;;;;;;4319561;33;43440;-88
2022/05/03 11:48:59;;;;;;;;;;;14.20;91.50;;;;;;4333182;33;42843;-89
2022/05/03 11:57:26;;;;;;;;;;;14.30;91.40;;;;;;4333135;33;43465;-88
2022/05/03 11:59:56;;;;;;;;;;;14.30;91.50;;;;;;4319438;33;42810;-87
2022/05/03 12:02:31;;;;;;;;;;;14.40;91.40;;;;;;4332239;33;42542;-88
2022/05/03 12:05:04;;;;;;;;;;;14.30;91.40;;;;;;4320512;33;20010;-88
2022/05/03 12:07:31;;;;;;;;;;;14.40;91.40;;;;;;4319727;33;45794;-88
2022/05/03 12:10:01;;;;;;;;;;;14.40;91.30;;;;;;4319318;33;43878;-88
2022/05/03 12:12:45;;;;;;;;;;;14.40;91.30;;;;;;4319986;33;43529;-88
2022/05/03 12:15:15;;;;;;;;;;;14.50;91.40;;;;;;4332904;33;43948;-88
2022/05/03 12:17:54;;;;;;;;;;;14.50;91.30;;;;;;4319268;33;43986;-89
2022/05/03 12:20:28;;;;;;;;;;;14.50;91.40;;;;;;4319817;33;45614;-89
2022/05/03 12:23:13;;;;;;;;;;;14.50;91.30;;;;;;4319258;33;43036;-89
2022/05/03 12:25:43;;;;;;;;;;;14.60;91.30;;;;;;4319871;33;44774;-90
2022/05/03 12:28:13;;;;;;;;;;;14.60;91.40;;;;;;4332416;33;45499;-90
2022/05/03 12:30:43;;;;;;;;;;;14.60;91.50;;;;;;4332708;33;43205;-89
2022/05/03 12:33:15;;;;;;;;;;;14.70;91.40;;;;;;4319813;33;44466;-88
2022/05/03 12:35:42;;;;;;;;;;;14.60;91.40;;;;;;4319931;33;43357;-89
2022/05/03 12:38:15;;;;;;;;;;;14.70;91.50;;;;;;4332471;33;45599;-89
2022/05/03 12:40:51;;;;;;;;;;;14.70;91.50;;;;;;4319488;33;43165;-89
2022/05/03 12:43:21;;;;;;;;;;;14.70;91.30;;;;;;4319422;33;44779;-90
2022/05/03 12:45:59;;;;;;;;;;;14.80;91.20;;;;;;4319463;33;43978;-89
2022/05/03 12:48:33;;;;;;;;;;;14.80;91.10;;;;;;4319513;33;45984;-89
2022/05/03 12:51:04;;;;;;;;;;;14.80;90.90;;;;;;4319004;33;42680;-89
2022/05/03 12:53:38;;;;;;;;;;;14.80;91.10;;;;;;4319443;33;44114;-89
2022/05/03 12:58:51;;;;;;;;;;;14.90;91.20;;;;;;4332235;33;43113;-89
2022/05/03 13:01:21;;;;;;;;;;;15.00;91.20;;;;;;4332244;33;44992;-90
2022/05/03 13:03:54;;;;;;;;;;;15.00;91.30;;;;;;4316729;33;42687;-91
2022/05/03 13:06:27;;;;;;;;;;;15.00;91.20;;;;;;4317553;33;20370;-90
2022/05/03 13:08:55;;;;;;;;;;;15.10;91.20;;;;;;4316748;33;43234;-90
2022/05/03 13:11:25;;;;;;;;;;;15.10;91.30;;;;;;4316742;33;43355;-90
2022/05/03 13:13:55;;;;;;;;;;;15.10;91.40;;;;;;4316211;33;44149;-88
2022/05/03 13:16:24;;;;;;;;;;;15.10;91.00;;;;;;4317790;33;43588;-91
2022/05/03 13:18:52;;;;;;;;;;;15.20;91.00;;;;;;4317578;33;44303;-88
2022/05/03 13:21:35;;;;;;;;;;;15.20;90.90;;;;;;4316039;33;44667;-89
2022/05/03 13:24:04;;;;;;;;;;;15.20;91.00;;;;;;4317503;33;43916;-88
2022/05/03 13:26:37;;;;;;;;;;;15.30;91.00;;;;;;4315570;33;44424;-85
2022/05/03 13:29:22;;;;;;;;;;;15.30;90.80;;;;;;4315748;33;45201;-84
2022/05/03 13:31:55;;;;;;;;;;;15.30;90.50;;;;;;4315568;33;45676;-89
2022/05/03 13:34:22;;;;;;;;;;;15.40;90.80;;;;;;4315787;33;43227;-90
2022/05/03 13:42:34;;;;;;;;;;;15.40;91.00;;;;;;4317116;33;44774;-90
2022/05/03 13:45:10;;;;;;;;;;;15.50;91.00;;;;;;4315707;33;44871;-90
2022/05/03 13:47:42;;;;;;;;;;;15.50;90.70;;;;;;4317271;33;44865;-91
2022/05/03 13:50:12;;;;;;;;;;;15.60;90.70;;;;;;4316955;33;43120;-89
2022/05/03 13:52:42;;;;;;;;;;;15.60;90.50;;;;;;4316115;33;44588;-90
2022/05/03 13:55:09;;;;;;;;;;;15.60;90.60;;;;;;4316164;33;44773;-91
2022/05/03 13:57:38;;;;;;;;;;;15.70;90.80;;;;;;4316070;33;45020;-90
2022/05/03 14:00:10;;;;;;;;;;;15.70;90.60;;;;;;4316886;33;44853;-91
2022/05/03 14:02:38;;;;;;;;;;;15.70;90.30;;;;;;4320203;33;42353;-92
2022/05/03 14:05:11;;;;;;;;;;;15.70;90.30;;;;;;4332355;33;45491;-92
2022/05/03 14:07:43;;;;;;;;;;;15.70;90.50;;;;;;4320114;33;20028;-92
2022/05/03 14:10:15;;;;;;;;;;;15.80;90.60;;;;;;4319913;33;44282;-93
2022/05/03 14:12:50;;;;;;;;;;;15.90;90.60;;;;;;4319401;33;43470;-93
2022/05/03 14:15:23;;;;;;;;;;;15.90;90.50;;;;;;4332642;33;43341;-93
2022/05/03 14:17:50;;;;;;;;;;;15.90;90.80;;;;;;4332277;33;42520;-90
2022/05/03 14:20:22;;;;;;;;;;;15.90;90.40;;;;;;4331693;33;44934;-91
2022/05/03 14:22:55;;;;;;;;;;;15.90;90.40;;;;;;4332089;33;42234;-92
2022/05/03 14:25:28;;;;;;;;;;;16.00;90.40;;;;;;4318958;33;45340;-92
2022/05/03 14:27:57;;;;;;;;;;;16.00;90.40;;;;;;4318921;33;42941;-92
2022/05/03 14:30:27;;;;;;;;;;;16.00;90.00;;;;;;4332372;33;45355;-92
2022/05/03 14:33:02;;;;;;;;;;;16.10;90.40;;;;;;4319269;33;44916;-92
2022/05/03 14:35:33;;;;;;;;;;;16.10;90.20;;;;;;4332355;33;45569;-92
2022/05/03 14:38:07;;;;;;;;;;;16.10;90.10;;;;;;4333117;33;20489;-90
2022/05/03 14:40:43;;;;;;;;;;;16.20;90.40;;;;;;4332180;33;43462;-93
2022/05/03 14:43:15;;;;;;;;;;;16.20;90.10;;;;;;4332204;33;43713;-94
2022/05/03 14:45:49;;;;;;;;;;;16.20;90.20;;;;;;4319476;33;44177;-93
2022/05/03 14:48:16;;;;;;;;;;;16.20;90.30;;;;;;4319569;33;43283;-92
2022/05/03 14:50:48;;;;;;;;;;;16.30;90.50;;;;;;4318938;33;45722;-91
2022/05/03 14:53:21;;;;;;;;;;;16.30;90.10;;;;;;4333302;33;43567;-95
2022/05/03 15:04:23;;;;;;;;;;;16.40;90.20;;;;;;4334691;33;42687;-94
2022/05/03 15:06:50;;;;;;;;;;;16.40;90.10;;;;;;4334864;33;42850;-92
2022/05/03 15:09:20;;;;;;;;;;;16.50;90.20;;;;;;4335736;33;20419;-92
2022/05/03 15:11:52;;;;;;;;;;;16.50;90.40;;;;;;4334658;33;43853;-94
2022/05/03 15:14:19;;;;;;;;;;;16.50;90.20;;;;;;4321118;33;45784;-83
2022/05/03 15:16:46;;;;;;;;;;;16.50;90.10;;;;;;4334026;33;43101;-89
2022/05/03 15:19:16;;;;;;;;;;;16.60;89.70;;;;;;4320017;33;44911;-89
2022/05/03 15:21:43;;;;;;;;;;;16.50;88.90;;;;;;4333367;33;43604;-88
2022/05/03 15:26:56;;;;;;;;;;;16.60;89.50;;;;;;4333311;33;44172;-86
2022/05/03 15:29:23;;;;;;;;;;;16.60;88.70;;;;;;4333342;33;43501;-89
2022/05/03 15:31:52;;;;;;;;;;;16.60;88.90;;;;;;4332895;33;44367;-89
2022/05/03 15:34:29;;;;;;;;;;;16.60;88.40;;;;;;4333285;33;42788;-90
2022/05/03 15:36:57;;;;;;;;;;;16.70;88.40;;;;;;4333251;33;42883;-90